Página principal
METAR-TAF:

METAR-TAF

Aeroportos :

Pago Pago, Ilhas Menores Distantes dos Estados Unidos

latitude: 14-20S, longitude: 170-43W, altura: 3 m

Observação actual do tempo

O boletim foi feito há 23 minutos, às 00:50 UTC
Vento 14 kt de es-sudeste
Temperatura 30°C
Humidade 75%
Pressão 1011 hPa
Visibilidade: 19.3 km
Poucas nuvensa uma altura de 1800 ft, Cumulus congestus.
Nuvens dispersasa uma altura de 14000 ft

METAR: NSTU 160050Z 11014KT 12SM FEW018TCU SCT140 30/25 A2984 RMK TCU NW-NE SLP103 T02950248

Hora: 14:13 (01:13 UTC)

Previsão

O boletim foi feito há 1 hora e 53 minutos, às 23:20 UTC
Previsão válida de 16 às 00 UTC a 16 às 24 UTC
Vento 11 kt de este
Visibilidade: 10 km
Nuvens dispersasa uma altura de 1800 ft
Nuvens dispersasa uma altura de 4000 ft
Nuvens fragmentadasa uma altura de 12000 ft
aguaceiros nas vizinhanças

TAF: NSTU 152320Z 1600/1624 09011KT P6SM VCSH SCT018 SCT040 BKN120

Observações e previsões do tempo de mais de 4000 aeroportos (mensagens METAR e TAF).

As estações disponíveis são os pontos amarelos e vermelhos sobre o mapa.

Mova o rato sobre o mapa para ver o nome da estação.

Depois clique no ponto para visualizar as observações e previsões meteorológicas.

Para alterar o mapa : clique nos botões verdes com uma cruz preta para aumentar o zoom; no botão verde com uma pitada de zoom; ou nas setas verdes para mapas adjacentes.


METAR-TAF: